KIZA

Santa Ynez Airport

Santa Ynez, California, USA
METAR KIZA 161435Z AUTO 00000KT 7SM BKN010 BKN013 09/08 A2978 RMK AO2
Observed Flight Rules
Dec-16 @ 14:35 UTC (19 minutes ago) Marginal Visual Flight Rules
Wind Visibility Clouds
Calm 7 miles
  • Broken at 1,000' AGL
  • Broken at 1,300' AGL
Temperatures Readings
Current 9°C / 48°F
Dewpoint 8°C / 46°F
Humidity 94%
Altimeter 29.78" Hg
Pressure 1008 hPa
Elevation 205
METAR KIZA 161435Z AUTO 00000KT 7SM BKN010 BKN013 09/08 A2978 RMK AO2
Observed Flight Rules
Dec-16 @ 14:35 UTC
(19 minutes ago)
MVFR
Wind Visibility
Calm 7 miles
Clouds
  • Broken at 1,000' AGL
  • Broken at 1,300' AGL
Temperature Dewpoint
9°C / 48°F 8°C / 46°F
Humidity Altimeter Pressure
94% 29.78" Hg 1008 hPa